createdAt,value
2022-09-12T00:01:41.777Z,11.69
2022-09-12T00:04:16.887Z,11.68
2022-09-12T00:07:03.791Z,11.66
2022-09-12T00:09:36.906Z,11.64
2022-09-12T00:12:23.793Z,11.64
2022-09-12T00:14:56.863Z,11.63
2022-09-12T00:17:44.806Z,11.61
2022-09-12T00:20:17.923Z,11.61
2022-09-12T00:23:04.851Z,11.61
2022-09-12T00:25:37.885Z,11.60
2022-09-12T00:28:25.802Z,11.56
2022-09-12T00:30:58.881Z,11.55
2022-09-12T00:33:46.783Z,11.50
2022-09-12T00:36:25.876Z,11.50
2022-09-12T00:39:12.807Z,11.47
2022-09-12T00:41:46.977Z,11.46
2022-09-12T00:44:33.821Z,11.47
2022-09-12T00:47:23.865Z,11.46
2022-09-12T00:50:16.822Z,11.41
2022-09-12T00:53:04.819Z,11.41
2022-09-12T00:56:03.813Z,11.40
2022-09-12T00:58:57.814Z,11.37
2022-09-12T01:01:32.782Z,11.37
2022-09-12T01:04:19.809Z,11.35
2022-09-12T01:06:53.869Z,11.36
2022-09-12T01:09:41.835Z,11.37
2022-09-12T01:12:14.889Z,11.38
2022-09-12T01:15:08.830Z,11.39
2022-09-12T01:18:07.824Z,11.39
2022-09-12T01:21:07.827Z,11.38
2022-09-12T01:24:01.850Z,11.34
2022-09-12T01:27:19.826Z,11.35
2022-09-12T01:30:05.049Z,11.33
2022-09-12T01:33:12.822Z,11.32
2022-09-12T01:36:34.861Z,11.31
2022-09-12T01:39:53.895Z,11.29
2022-09-12T01:43:09.832Z,11.29
2022-09-12T01:45:57.962Z,11.28
2022-09-12T01:48:44.873Z,11.29
2022-09-12T01:51:42.833Z,11.28
2022-09-12T01:54:22.141Z,11.27
2022-09-12T01:57:13.854Z,11.28
2022-09-12T01:59:51.390Z,11.27
2022-09-12T02:03:09.838Z,11.27
2022-09-12T02:06:24.848Z,11.23
2022-09-12T02:09:01.913Z,11.20
2022-09-12T02:11:50.839Z,11.18
2022-09-12T02:14:39.848Z,11.17
2022-09-12T02:17:36.851Z,11.13
2022-09-12T02:20:48.470Z,11.10
2022-09-12T02:23:37.845Z,11.05
2022-09-12T02:26:48.875Z,11.04
2022-09-12T02:29:42.849Z,11.02
2022-09-12T02:32:41.884Z,11.02
2022-09-12T02:35:38.863Z,11.02
2022-09-12T02:38:42.889Z,11.00
2022-09-12T02:41:15.924Z,11.01
2022-09-12T02:44:02.854Z,11.00
2022-09-12T02:46:54.885Z,11.00
2022-09-12T02:49:48.867Z,11.01
2022-09-12T02:52:42.865Z,10.99
2022-09-12T02:55:30.871Z,10.97
2022-09-12T02:58:10.895Z,10.96
2022-09-12T03:01:09.936Z,10.96
2022-09-12T03:04:05.854Z,10.96
2022-09-12T03:06:47.938Z,10.96
2022-09-12T03:09:53.874Z,10.94
2022-09-12T03:12:48.880Z,10.94
2022-09-12T03:15:57.862Z,10.92
2022-09-12T03:19:17.881Z,10.90
2022-09-12T03:22:34.871Z,10.89
2022-09-12T03:25:30.904Z,10.87
2022-09-12T03:28:09.372Z,10.88
2022-09-12T03:31:00.939Z,10.87
2022-09-12T03:33:40.913Z,10.87
2022-09-12T03:36:39.882Z,10.87
2022-09-12T03:39:27.916Z,10.84
2022-09-12T03:42:08.894Z,10.83
2022-09-12T03:44:55.908Z,10.81
2022-09-12T03:47:28.947Z,10.81
2022-09-12T03:50:15.901Z,10.79
2022-09-12T03:52:48.959Z,10.76
2022-09-12T03:55:35.904Z,10.75
2022-09-12T03:58:08.986Z,10.75
2022-09-12T04:00:55.926Z,10.75
2022-09-12T04:03:29.022Z,10.74
2022-09-12T04:06:17.905Z,10.74
2022-09-12T04:08:59.986Z,10.72
2022-09-12T04:11:46.910Z,10.71
2022-09-12T04:14:20.018Z,10.72
2022-09-12T04:17:06.916Z,10.71
2022-09-12T04:19:39.988Z,10.69
2022-09-12T04:22:27.902Z,10.69
2022-09-12T04:25:00.997Z,10.70
2022-09-12T04:27:47.905Z,10.66
2022-09-12T04:30:20.995Z,10.65
2022-09-12T04:33:08.288Z,10.63
2022-09-12T04:35:42.930Z,10.63
2022-09-12T04:38:29.926Z,10.62
2022-09-12T04:41:02.983Z,10.61
2022-09-12T04:43:52.932Z,10.60
2022-09-12T04:46:25.992Z,10.59
2022-09-12T04:49:12.928Z,10.57
2022-09-12T04:51:48.042Z,10.58
2022-09-12T04:54:34.898Z,10.58
2022-09-12T04:57:14.920Z,10.58
2022-09-12T05:00:06.476Z,10.58
2022-09-12T05:02:47.933Z,10.60
2022-09-12T05:05:41.932Z,10.60
2022-09-12T05:08:28.950Z,10.61
2022-09-12T05:11:02.000Z,10.61
2022-09-12T05:13:48.928Z,10.62
2022-09-12T05:16:24.274Z,10.65
2022-09-12T05:19:10.940Z,10.69
2022-09-12T05:21:44.053Z,10.72
2022-09-12T05:24:30.935Z,10.75
2022-09-12T05:27:04.843Z,10.79
2022-09-12T05:29:51.957Z,10.82
2022-09-12T05:32:31.940Z,10.85
2022-09-12T05:35:25.949Z,10.88
2022-09-12T05:38:13.929Z,10.94
2022-09-12T05:40:46.995Z,11.01
2022-09-12T05:43:33.950Z,11.14
2022-09-12T05:46:15.048Z,11.24
2022-09-12T05:49:02.958Z,11.36
2022-09-12T05:51:41.518Z,11.45
2022-09-12T05:54:31.377Z,11.52
2022-09-12T05:57:11.970Z,11.57
2022-09-12T05:59:58.947Z,11.59
2022-09-12T06:02:39.010Z,11.58
2022-09-12T06:05:32.949Z,11.56
2022-09-12T06:08:19.961Z,11.55
2022-09-12T06:10:53.124Z,11.54
2022-09-12T06:13:40.985Z,11.54
2022-09-12T06:16:26.013Z,11.54
2022-09-12T06:19:18.970Z,11.59
2022-09-12T06:21:53.475Z,11.64
2022-09-12T06:24:32.966Z,11.68
2022-09-12T06:27:12.963Z,11.70
2022-09-12T06:29:46.033Z,11.75
2022-09-12T06:32:32.969Z,11.76
2022-09-12T06:35:06.049Z,11.77
2022-09-12T06:37:52.967Z,11.77
2022-09-12T06:40:33.994Z,11.79
2022-09-12T06:43:27.977Z,11.74
2022-09-12T06:46:16.037Z,11.74
2022-09-12T06:48:55.962Z,11.79
2022-09-12T06:51:42.969Z,11.84
2022-09-12T06:54:26.979Z,11.86
2022-09-12T06:57:20.970Z,11.91
2022-09-12T07:00:07.998Z,11.91
2022-09-12T07:02:41.183Z,11.97
2022-09-12T07:05:27.971Z,12.07
2022-09-12T07:08:01.058Z,12.11
2022-09-12T07:10:47.985Z,12.11
2022-09-12T07:13:21.345Z,12.10
2022-09-12T07:16:21.098Z,12.15
2022-09-12T07:19:10.003Z,12.19
2022-09-12T07:21:46.082Z,12.22
2022-09-12T07:24:32.995Z,12.23
2022-09-12T07:27:06.074Z,12.26
2022-09-12T07:29:53.984Z,12.30
2022-09-12T07:32:34.003Z,12.34
2022-09-12T07:35:21.008Z,12.37
2022-09-12T07:38:01.014Z,12.42
2022-09-12T07:40:54.997Z,12.47
2022-09-12T07:43:42.086Z,12.50
2022-09-12T07:46:23.019Z,12.57
2022-09-12T07:49:10.011Z,12.66
2022-09-12T07:51:43.476Z,12.73
2022-09-12T07:54:30.018Z,12.78
2022-09-12T07:57:03.069Z,12.83
2022-09-12T07:59:53.051Z,12.85
2022-09-12T08:02:27.131Z,12.88
2022-09-12T08:05:14.028Z,12.93
2022-09-12T08:07:57.650Z,12.95
2022-09-12T08:10:52.032Z,13.01
2022-09-12T08:13:49.569Z,13.06
2022-09-12T08:16:46.006Z,13.06
2022-09-12T08:19:40.027Z,13.07
2022-09-12T08:22:34.012Z,13.09
2022-09-12T08:25:21.027Z,13.15
2022-09-12T08:27:54.343Z,13.15
2022-09-12T08:30:41.078Z,13.14
2022-09-12T08:33:22.020Z,13.19
2022-09-12T08:36:20.029Z,13.27
2022-09-12T08:39:04.035Z,13.31
2022-09-12T08:42:00.094Z,13.31
2022-09-12T08:44:49.047Z,13.33
2022-09-12T08:47:35.050Z,13.35
2022-09-12T08:50:32.050Z,13.40
2022-09-12T08:53:27.044Z,13.38
2022-09-12T08:56:11.021Z,13.35
2022-09-12T08:58:58.055Z,13.36
2022-09-12T09:01:49.143Z,13.45
2022-09-12T09:05:05.046Z,13.45
2022-09-12T09:08:10.042Z,13.39
2022-09-12T09:10:53.195Z,13.39
2022-09-12T09:14:13.056Z,13.33
2022-09-12T09:16:56.063Z,13.30
2022-09-12T09:19:50.646Z,13.27
2022-09-12T09:22:50.061Z,13.27
2022-09-12T09:26:00.058Z,13.29
2022-09-12T09:28:49.085Z,13.38
2022-09-12T09:31:51.073Z,13.34
2022-09-12T09:34:45.045Z,13.43
2022-09-12T09:37:54.539Z,13.47
2022-09-12T09:41:06.064Z,13.50
2022-09-12T09:44:00.106Z,13.57
2022-09-12T09:46:54.063Z,13.65
2022-09-12T09:49:48.084Z,13.69
2022-09-12T09:52:38.061Z,13.71
2022-09-12T09:55:19.086Z,13.74
2022-09-12T09:58:13.056Z,13.76
2022-09-12T10:01:06.124Z,13.79
2022-09-12T10:03:47.144Z,13.83
2022-09-12T10:06:46.058Z,13.84
2022-09-12T10:09:41.082Z,13.84
2022-09-12T10:12:39.065Z,13.90
2022-09-12T10:15:36.145Z,13.92
2022-09-12T10:18:48.078Z,13.93
2022-09-12T10:21:41.043Z,13.95
2022-09-12T10:24:28.182Z,13.95
2022-09-12T10:27:29.100Z,13.96
2022-09-12T10:30:14.452Z,14.00
2022-09-12T10:33:05.077Z,13.99
2022-09-12T10:35:51.922Z,14.00
2022-09-12T10:38:46.085Z,14.00
2022-09-12T10:41:21.850Z,14.06
2022-09-12T10:44:21.095Z,14.05
2022-09-12T10:46:55.786Z,14.12
2022-09-12T10:49:47.098Z,14.18
2022-09-12T10:52:24.964Z,14.18
2022-09-12T10:55:12.107Z,14.18
2022-09-12T10:58:14.439Z,14.18
2022-09-12T11:01:09.135Z,14.17
2022-09-12T11:04:10.100Z,14.18
2022-09-12T11:06:58.180Z,14.20
2022-09-12T11:09:42.094Z,14.24
2022-09-12T11:12:42.217Z,14.22
2022-09-12T11:16:01.191Z,14.17
2022-09-12T11:19:24.101Z,14.19
2022-09-12T11:22:25.281Z,14.22
2022-09-12T11:25:39.106Z,14.21
2022-09-12T11:28:31.224Z,14.22
2022-09-12T11:31:51.100Z,14.23
2022-09-12T11:34:40.199Z,14.24
2022-09-12T11:37:52.113Z,14.26
2022-09-12T11:41:07.122Z,14.23
2022-09-12T11:44:29.117Z,14.22
2022-09-12T11:47:27.154Z,14.22
2022-09-12T11:50:28.126Z,14.20
2022-09-12T11:53:07.074Z,14.18
2022-09-12T11:56:05.115Z,14.17
2022-09-12T11:58:38.221Z,14.17
2022-09-12T12:01:36.271Z,14.17
2022-09-12T12:04:18.219Z,14.15
2022-09-12T12:07:23.137Z,14.15
2022-09-12T12:10:05.125Z,14.13
2022-09-12T12:12:59.150Z,14.08
2022-09-12T12:15:53.228Z,14.10
2022-09-12T12:18:50.154Z,14.09
2022-09-12T12:21:49.141Z,14.08
2022-09-12T12:24:34.289Z,14.07
2022-09-12T12:27:52.141Z,14.05
2022-09-12T12:31:08.193Z,14.08
2022-09-12T12:34:02.168Z,14.05
2022-09-12T12:36:50.150Z,14.04
2022-09-12T12:39:45.201Z,14.02
2022-09-12T12:42:48.156Z,14.01
2022-09-12T12:45:35.170Z,13.97
2022-09-12T12:48:16.212Z,13.95
2022-09-12T12:51:42.183Z,13.93
2022-09-12T12:54:44.189Z,13.91
2022-09-12T12:58:13.176Z,13.92
2022-09-12T13:01:28.270Z,13.96
2022-09-12T13:04:12.395Z,13.98
2022-09-12T13:07:29.162Z,13.96
2022-09-12T13:10:04.226Z,13.96
2022-09-12T13:12:54.163Z,13.97
2022-09-12T13:15:49.202Z,13.99
2022-09-12T13:18:55.183Z,14.03
2022-09-12T13:21:42.178Z,14.08
2022-09-12T13:24:30.184Z,14.09
2022-09-12T13:27:38.175Z,14.10
2022-09-12T13:30:25.200Z,14.08
2022-09-12T13:32:59.287Z,14.06
2022-09-12T13:35:58.166Z,14.07
2022-09-12T13:38:52.255Z,14.08
2022-09-12T13:41:57.160Z,14.08
2022-09-12T13:44:40.180Z,14.07
2022-09-12T13:48:02.276Z,14.06
2022-09-12T13:51:04.199Z,14.04
2022-09-12T13:54:03.188Z,14.03
2022-09-12T13:57:03.184Z,14.04
2022-09-12T13:59:56.199Z,14.02
2022-09-12T14:02:31.474Z,14.04
2022-09-12T14:05:26.193Z,14.04
2022-09-12T14:08:04.612Z,14.04
2022-09-12T14:10:54.201Z,14.03
2022-09-12T14:13:39.185Z,14.05
2022-09-12T14:16:35.209Z,14.05
2022-09-12T14:19:26.211Z,14.06
2022-09-12T14:22:02.185Z,14.11
2022-09-12T14:24:49.205Z,14.12
2022-09-12T14:27:28.784Z,14.12
2022-09-12T14:30:28.219Z,14.12
2022-09-12T14:33:23.207Z,14.12
2022-09-12T14:36:47.215Z,14.08
2022-09-12T14:39:46.245Z,14.07
2022-09-12T14:42:27.159Z,14.06
2022-09-12T14:45:25.214Z,14.04
2022-09-12T14:48:06.225Z,14.02
2022-09-12T14:51:04.239Z,14.00
2022-09-12T14:53:55.206Z,13.97
2022-09-12T14:56:43.349Z,13.99
2022-09-12T14:59:36.306Z,14.00
2022-09-12T15:02:27.386Z,14.00
2022-09-12T15:05:14.240Z,14.00
2022-09-12T15:08:09.293Z,13.99
2022-09-12T15:10:56.229Z,13.97
2022-09-12T15:13:38.230Z,13.98
2022-09-12T15:16:32.247Z,13.95
2022-09-12T15:19:26.247Z,13.95
2022-09-12T15:22:20.244Z,13.93
2022-09-12T15:25:07.246Z,13.92
2022-09-12T15:27:43.400Z,13.90
2022-09-12T15:30:30.249Z,13.88
2022-09-12T15:33:03.297Z,13.86
2022-09-12T15:35:50.257Z,13.83
2022-09-12T15:38:26.509Z,13.82
2022-09-12T15:41:18.263Z,13.79
2022-09-12T15:43:52.556Z,13.77
2022-09-12T15:46:39.319Z,13.75
2022-09-12T15:49:20.245Z,13.72
2022-09-12T15:52:14.242Z,13.72
2022-09-12T15:55:08.259Z,13.71
2022-09-12T15:57:55.255Z,13.68
2022-09-12T16:00:28.353Z,13.67
2022-09-12T16:03:27.246Z,13.66
2022-09-12T16:06:14.261Z,13.65
2022-09-12T16:09:08.250Z,13.63
2022-09-12T16:11:55.251Z,13.61
2022-09-12T16:14:28.329Z,13.61
2022-09-12T16:17:22.250Z,13.61
2022-09-12T16:20:09.270Z,13.60
2022-09-12T16:22:42.353Z,13.58
2022-09-12T16:25:29.274Z,13.54
2022-09-12T16:28:03.517Z,13.53
2022-09-12T16:30:50.319Z,13.51
2022-09-12T16:33:23.387Z,13.48
2022-09-12T16:36:12.278Z,13.46
2022-09-12T16:38:50.362Z,13.43
2022-09-12T16:41:37.263Z,13.39
2022-09-12T16:44:10.370Z,13.35
2022-09-12T16:46:57.291Z,13.31
2022-09-12T16:49:30.511Z,13.28
2022-09-12T16:52:18.297Z,13.22
2022-09-12T16:54:51.355Z,13.18
2022-09-12T16:57:39.283Z,13.15
2022-09-12T17:00:15.112Z,13.10
2022-09-12T17:03:02.355Z,13.07
2022-09-12T17:05:42.308Z,13.00
2022-09-12T17:08:29.288Z,12.95
2022-09-12T17:11:18.312Z,12.91
2022-09-12T17:14:14.219Z,12.86
2022-09-12T17:17:08.285Z,12.79
2022-09-12T17:19:55.394Z,12.70
2022-09-12T17:22:35.281Z,12.64
2022-09-12T17:25:22.304Z,12.57
2022-09-12T17:27:55.365Z,12.51
2022-09-12T17:30:42.320Z,12.42
2022-09-12T17:33:16.382Z,12.36
2022-09-12T17:36:12.297Z,12.27
2022-09-12T17:38:53.305Z,12.17
2022-09-12T17:41:48.308Z,12.12
2022-09-12T17:44:36.323Z,12.03
2022-09-12T17:47:18.305Z,11.99
2022-09-12T17:50:30.934Z,11.93
2022-09-12T17:53:19.329Z,11.84
2022-09-12T17:55:54.343Z,11.75
2022-09-12T17:58:42.310Z,11.68
2022-09-12T18:01:39.171Z,11.57
2022-09-12T18:04:26.327Z,11.45
2022-09-12T18:07:07.330Z,11.39
2022-09-12T18:10:01.335Z,11.33
2022-09-12T18:12:48.325Z,11.33
2022-09-12T18:15:21.430Z,11.25
2022-09-12T18:18:08.358Z,11.16
2022-09-12T18:20:41.383Z,11.12
2022-09-12T18:23:28.334Z,11.07
2022-09-12T18:26:05.459Z,11.02
2022-09-12T18:28:52.306Z,10.97
2022-09-12T18:31:28.909Z,10.91
2022-09-12T18:34:19.329Z,10.87
2022-09-12T18:36:54.979Z,10.83
2022-09-12T18:39:41.370Z,10.79
2022-09-12T18:42:14.414Z,10.76
2022-09-12T18:45:01.373Z,10.74
2022-09-12T18:47:34.428Z,10.69
2022-09-12T18:50:21.339Z,10.60
2022-09-12T18:52:59.008Z,10.55
2022-09-12T18:55:46.370Z,10.47
2022-09-12T18:58:26.337Z,10.39
2022-09-12T19:01:23.408Z,10.37
2022-09-12T19:04:11.352Z,10.31
2022-09-12T19:06:50.605Z,10.25
2022-09-12T19:09:37.365Z,10.18
2022-09-12T19:12:10.452Z,10.12
2022-09-12T19:14:57.367Z,10.08
2022-09-12T19:17:37.340Z,10.07
2022-09-12T19:20:31.341Z,10.06
2022-09-12T19:23:18.364Z,10.01
2022-09-12T19:25:51.461Z,9.98
2022-09-12T19:28:38.377Z,9.96
2022-09-12T19:31:13.526Z,9.90
2022-09-12T19:34:00.343Z,9.87
2022-09-12T19:36:44.963Z,9.85
2022-09-12T19:39:32.352Z,9.81
2022-09-12T19:42:05.476Z,9.77
2022-09-12T19:44:52.349Z,9.70
2022-09-12T19:47:25.490Z,9.66
2022-09-12T19:50:13.356Z,9.62
2022-09-12T19:52:53.363Z,9.57
2022-09-12T19:55:49.399Z,9.53
2022-09-12T19:58:44.349Z,9.47
2022-09-12T20:01:41.501Z,9.45
2022-09-12T20:04:35.362Z,9.37
2022-09-12T20:07:22.377Z,9.32
2022-09-12T20:09:55.433Z,9.27
2022-09-12T20:12:42.377Z,9.22
2022-09-12T20:15:16.458Z,9.19
2022-09-12T20:18:10.376Z,9.15
2022-09-12T20:21:04.387Z,9.13
2022-09-12T20:23:52.369Z,9.12
2022-09-12T20:26:28.587Z,9.12
2022-09-12T20:29:15.387Z,9.05
2022-09-12T20:31:49.453Z,9.04
2022-09-12T20:34:36.397Z,9.02
2022-09-12T20:37:09.446Z,8.98
2022-09-12T20:39:56.465Z,8.95
2022-09-12T20:42:36.379Z,8.96
2022-09-12T20:45:30.378Z,8.95
2022-09-12T20:48:24.390Z,8.87
2022-09-12T20:51:18.422Z,8.80
2022-09-12T20:54:14.394Z,8.75
2022-09-12T20:57:08.382Z,8.73
2022-09-12T20:59:55.410Z,8.69
2022-09-12T21:02:29.912Z,8.67
2022-09-12T21:05:16.386Z,8.64
2022-09-12T21:07:56.388Z,8.62
2022-09-12T21:10:50.387Z,8.63
2022-09-12T21:13:44.416Z,8.62
2022-09-12T21:16:38.398Z,8.58
2022-09-12T21:19:32.419Z,8.52
2022-09-12T21:22:26.384Z,8.49
2022-09-12T21:25:13.419Z,8.45
2022-09-12T21:27:53.411Z,8.40
2022-09-12T21:30:40.389Z,8.35
2022-09-12T21:33:13.478Z,8.32
2022-09-12T21:36:00.391Z,8.32
2022-09-12T21:38:33.500Z,8.31
2022-09-12T21:41:22.405Z,8.35
2022-09-12T21:44:02.430Z,8.29
2022-09-12T21:46:56.403Z,8.25
2022-09-12T21:49:43.411Z,8.21
2022-09-12T21:52:18.544Z,8.20
2022-09-12T21:55:05.423Z,8.16
2022-09-12T21:57:42.506Z,8.13
2022-09-12T22:00:29.438Z,8.15
2022-09-12T22:03:04.910Z,8.19
2022-09-12T22:05:51.425Z,8.20
2022-09-12T22:08:24.482Z,8.13
2022-09-12T22:11:15.444Z,8.11
2022-09-12T22:13:48.598Z,8.11
2022-09-12T22:16:35.428Z,8.07
2022-09-12T22:19:08.568Z,8.04
2022-09-12T22:22:13.416Z,8.04
2022-09-12T22:24:46.524Z,8.05
2022-09-12T22:27:33.434Z,8.06
2022-09-12T22:30:13.443Z,8.04
2022-09-12T22:33:00.447Z,7.99
2022-09-12T22:35:40.430Z,7.93
2022-09-12T22:38:34.457Z,7.92
2022-09-12T22:41:28.491Z,7.94
2022-09-12T22:44:17.442Z,7.92
2022-09-12T22:46:52.050Z,7.88
2022-09-12T22:49:38.462Z,7.83
2022-09-12T22:52:11.554Z,7.80
2022-09-12T22:54:58.448Z,7.77
2022-09-12T22:57:31.523Z,7.70
2022-09-12T23:00:18.442Z,7.62
2022-09-12T23:02:51.524Z,7.59
2022-09-12T23:05:38.440Z,7.55
2022-09-12T23:08:18.426Z,7.50
2022-09-12T23:11:17.455Z,7.44
2022-09-12T23:14:04.456Z,7.43
2022-09-12T23:16:37.699Z,7.40
2022-09-12T23:19:24.451Z,7.40
2022-09-12T23:21:57.528Z,7.38
2022-09-12T23:24:44.462Z,7.35
2022-09-12T23:27:24.674Z,7.30
2022-09-12T23:30:12.479Z,7.31
2022-09-12T23:32:45.545Z,7.28
2022-09-12T23:35:32.475Z,7.30
2022-09-12T23:38:06.412Z,7.34
2022-09-12T23:40:53.449Z,7.36
2022-09-12T23:43:26.549Z,7.35
2022-09-12T23:46:14.497Z,7.33
2022-09-12T23:48:48.757Z,7.34
2022-09-12T23:51:35.459Z,7.27
2022-09-12T23:54:08.738Z,7.24
2022-09-12T23:56:55.484Z,7.21
2022-09-12T23:59:31.020Z,7.18
